Time;durP1;ratioP1;P1;durP2;ratioP2;P2;SDS_P1;SDS_P2;PMS_P1;PMS_P2;Temp;Humidity;BMP_temperature;BMP_pressure;BME280_temperature;BME280_humidity;BME280_pressure;Samples;Min_cycle;Max_cycle;Signal;HPM_P1;HPM_P2
2024/03/15 00:02:20;;;;;;;3.17;1.90;;;17.80;99.90;;;;;;5071488;28;20032;-78
2024/03/15 00:04:46;;;;;;;3.17;1.80;;;17.80;99.90;;;;;;5072571;28;20035;-78
2024/03/15 00:07:11;;;;;;;4.40;1.87;;;17.80;99.90;;;;;;5064914;28;20695;-76
2024/03/15 00:09:37;;;;;;;2.50;1.83;;;17.80;99.90;;;;;;5071114;28;20085;-77
2024/03/15 00:12:03;;;;;;;3.70;1.90;;;17.80;99.90;;;;;;5072981;28;20365;-77
2024/03/15 00:14:29;;;;;;;2.70;1.60;;;17.70;99.90;;;;;;5072351;28;20265;-77
2024/03/15 00:16:55;;;;;;;5.17;1.73;;;17.70;99.90;;;;;;5070987;28;20117;-75
2024/03/15 00:19:21;;;;;;;2.75;1.85;;;17.80;99.90;;;;;;5072226;28;20138;-77
2024/03/15 00:21:48;;;;;;;2.05;1.27;;;17.70;99.90;;;;;;5071934;28;20110;-77
2024/03/15 00:24:14;;;;;;;2.97;1.67;;;17.70;99.90;;;;;;5071003;28;20025;-77
2024/03/15 00:26:41;;;;;;;3.95;1.90;;;17.70;99.90;;;;;;5072141;28;20033;-78
2024/03/15 00:29:07;;;;;;;2.50;1.63;;;17.70;99.90;;;;;;5058593;28;20060;-78
2024/03/15 00:31:33;;;;;;;5.18;1.73;;;17.70;99.90;;;;;;5070548;28;20032;-77
2024/03/15 00:33:59;;;;;;;4.45;1.52;;;17.70;99.90;;;;;;5070512;28;20028;-77
2024/03/15 00:36:25;;;;;;;2.67;1.80;;;17.70;99.90;;;;;;5070642;28;20621;-75
2024/03/15 00:38:53;;;;;;;3.20;1.90;;;17.70;99.90;;;;;;5071916;28;20024;-77
2024/03/15 00:41:21;;;;;;;1.90;1.40;;;17.70;99.90;;;;;;5070401;28;20028;-76
2024/03/15 00:43:48;;;;;;;3.20;1.45;;;17.70;99.90;;;;;;5068886;28;20024;-76
2024/03/15 00:46:17;;;;;;;2.33;1.40;;;17.70;99.90;;;;;;5070569;28;20036;-77
2024/03/15 00:48:43;;;;;;;2.80;1.80;;;17.70;99.90;;;;;;5070357;28;20567;-76
2024/03/15 00:51:09;;;;;;;1.95;1.40;;;17.70;99.90;;;;;;5070889;28;20031;-78
2024/03/15 00:53:36;;;;;;;2.97;1.80;;;17.70;99.90;;;;;;5071777;28;20028;-76
2024/03/15 00:56:03;;;;;;;1.45;1.30;;;17.70;99.90;;;;;;5072090;28;20028;-77
2024/03/15 00:58:30;;;;;;;2.30;1.60;;;17.60;99.90;;;;;;5071984;28;20021;-78
2024/03/15 01:00:56;;;;;;;3.00;1.67;;;17.70;99.90;;;;;;5069866;28;20037;-78
2024/03/15 01:03:25;;;;;;;4.70;2.03;;;17.70;99.90;;;;;;5071303;28;20024;-77
2024/03/15 01:05:51;;;;;;;2.67;1.55;;;17.60;99.90;;;;;;5071606;28;20361;-76
2024/03/15 01:08:18;;;;;;;3.80;1.38;;;17.60;99.90;;;;;;5070361;28;20021;-77
2024/03/15 01:10:46;;;;;;;2.65;1.60;;;17.60;99.90;;;;;;5070143;28;20473;-78
2024/03/15 01:13:12;;;;;;;2.70;1.60;;;17.60;99.90;;;;;;5069901;28;20059;-77
2024/03/15 01:15:38;;;;;;;3.35;1.55;;;17.60;99.90;;;;;;5070687;28;20020;-78
2024/03/15 01:18:04;;;;;;;2.00;1.30;;;17.60;99.90;;;;;;5071233;28;20048;-77
2024/03/15 01:20:30;;;;;;;1.83;1.40;;;17.60;99.90;;;;;;5069783;28;20513;-77
2024/03/15 01:22:56;;;;;;;4.75;1.70;;;17.60;99.90;;;;;;5070712;28;20044;-78
2024/03/15 01:25:23;;;;;;;2.55;1.77;;;17.60;99.90;;;;;;5071305;28;20036;-77
2024/03/15 01:27:49;;;;;;;4.10;1.60;;;17.60;99.90;;;;;;5070791;28;20040;-77
2024/03/15 01:30:14;;;;;;;4.07;1.57;;;17.60;99.90;;;;;;5071311;28;20037;-77
2024/03/15 01:32:40;;;;;;;2.70;1.60;;;17.60;99.90;;;;;;5069846;28;20054;-78
2024/03/15 01:35:07;;;;;;;3.17;1.63;;;17.60;99.90;;;;;;5069531;28;20745;-76
2024/03/15 01:37:33;;;;;;;4.28;2.03;;;17.50;99.90;;;;;;5069514;28;20141;-77
2024/03/15 01:39:59;;;;;;;3.83;1.70;;;17.60;99.90;;;;;;5070672;28;20063;-77
2024/03/15 01:42:24;;;;;;;2.50;1.50;;;17.50;99.90;;;;;;5069323;28;20028;-77
2024/03/15 01:44:56;;;;;;;2.67;1.57;;;17.50;99.90;;;;;;5069661;28;20028;-77
2024/03/15 01:47:28;;;;;;;2.83;1.77;;;17.60;99.90;;;;;;5070495;28;20036;-77
2024/03/15 01:49:56;;;;;;;2.80;1.50;;;17.50;99.90;;;;;;5069957;28;20036;-78
2024/03/15 01:52:24;;;;;;;2.20;1.55;;;17.50;99.90;;;;;;5075042;28;20051;-78
2024/03/15 01:54:50;;;;;;;4.57;1.73;;;17.50;99.90;;;;;;5069330;28;20024;-76
2024/03/15 01:57:19;;;;;;;3.65;1.90;;;17.50;99.90;;;;;;5070485;28;20078;-77
2024/03/15 01:59:46;;;;;;;3.03;1.50;;;17.50;99.90;;;;;;5070687;28;20032;-77
2024/03/15 02:02:13;;;;;;;3.25;1.40;;;17.50;99.90;;;;;;5070145;28;20025;-78
2024/03/15 02:04:40;;;;;;;3.28;1.70;;;17.50;99.90;;;;;;5069985;28;20046;-77
2024/03/15 02:07:06;;;;;;;2.47;1.70;;;17.50;99.90;;;;;;5070523;28;20366;-77
2024/03/15 02:09:32;;;;;;;2.85;1.45;;;17.50;99.90;;;;;;5069563;28;20025;-76
2024/03/15 02:11:58;;;;;;;2.83;1.52;;;17.50;99.90;;;;;;5069402;28;20417;-77
2024/03/15 02:14:25;;;;;;;1.55;1.45;;;17.50;99.90;;;;;;5069504;28;20028;-77
2024/03/15 02:16:53;;;;;;;2.78;1.58;;;17.40;99.90;;;;;;5069390;28;20498;-77
2024/03/15 02:19:19;;;;;;;2.58;1.50;;;17.50;99.90;;;;;;5069421;28;20373;-77
2024/03/15 02:21:47;;;;;;;2.22;1.38;;;17.40;99.90;;;;;;5069147;28;20450;-76
2024/03/15 02:24:13;;;;;;;5.05;1.75;;;17.40;99.90;;;;;;5070012;28;20037;-76
2024/03/15 02:26:42;;;;;;;3.40;1.80;;;17.40;99.90;;;;;;5070607;28;20017;-77
2024/03/15 02:29:15;;;;;;;2.60;1.40;;;17.40;99.90;;;;;;5070628;28;20082;-76
2024/03/15 02:31:45;;;;;;;4.18;1.80;;;17.40;99.90;;;;;;5069094;28;20024;-76
2024/03/15 02:34:11;;;;;;;3.20;1.60;;;17.40;99.90;;;;;;5069769;28;20091;-77
2024/03/15 02:36:37;;;;;;;2.40;1.70;;;17.40;99.90;;;;;;5069633;28;20465;-77
2024/03/15 02:39:03;;;;;;;2.03;1.50;;;17.40;99.90;;;;;;5070151;28;20060;-76
2024/03/15 02:41:28;;;;;;;4.20;2.00;;;17.40;99.90;;;;;;5068259;28;20465;-76
2024/03/15 02:43:54;;;;;;;3.03;1.60;;;17.40;99.90;;;;;;5062733;28;20378;-77
2024/03/15 02:46:20;;;;;;;3.10;2.10;;;17.40;99.90;;;;;;5065243;28;20029;-76
2024/03/15 02:48:45;;;;;;;2.23;1.53;;;17.40;99.90;;;;;;5068389;28;20031;-77
2024/03/15 02:51:11;;;;;;;2.50;1.70;;;17.40;99.90;;;;;;5070157;28;20075;-76
2024/03/15 02:53:37;;;;;;;3.93;1.57;;;17.40;99.90;;;;;;5068658;28;20027;-77
2024/03/15 02:56:03;;;;;;;2.42;1.77;;;17.40;99.90;;;;;;5069215;28;20027;-76
2024/03/15 02:58:30;;;;;;;3.72;1.83;;;17.40;99.90;;;;;;5073863;28;20028;-77
2024/03/15 03:00:56;;;;;;;3.40;1.80;;;17.40;99.90;;;;;;5072125;28;20488;-75
2024/03/15 03:03:21;;;;;;;2.23;1.50;;;17.30;99.90;;;;;;5072564;28;20111;-78
2024/03/15 03:05:47;;;;;;;1.93;1.50;;;17.30;99.90;;;;;;5072198;28;20036;-76
2024/03/15 03:08:14;;;;;;;3.87;1.73;;;17.30;99.90;;;;;;5073697;28;20847;-76
2024/03/15 03:10:40;;;;;;;2.90;1.90;;;17.30;99.90;;;;;;5072350;28;20484;-77
2024/03/15 03:13:07;;;;;;;3.53;2.10;;;17.30;99.90;;;;;;5072110;28;20807;-76
2024/03/15 03:15:33;;;;;;;2.67;1.75;;;17.30;99.90;;;;;;5073803;28;20120;-76
2024/03/15 03:17:59;;;;;;;2.83;1.88;;;17.30;99.90;;;;;;5073447;28;20032;-75
2024/03/15 03:20:32;;;;;;;3.03;1.40;;;17.30;99.90;;;;;;5072961;28;20032;-76
2024/03/15 03:23:02;;;;;;;2.35;2.00;;;17.30;99.90;;;;;;5073290;28;20036;-77
2024/03/15 03:25:28;;;;;;;2.05;1.63;;;17.30;99.90;;;;;;5072169;28;20421;-77
2024/03/15 03:27:53;;;;;;;2.03;1.70;;;17.30;99.90;;;;;;5073588;28;20131;-77
2024/03/15 03:30:19;;;;;;;3.87;2.00;;;17.30;99.90;;;;;;5073549;28;20611;-78
2024/03/15 03:32:45;;;;;;;2.40;1.67;;;17.20;99.90;;;;;;5073528;28;20028;-77
2024/03/15 03:35:11;;;;;;;2.67;1.53;;;17.20;99.90;;;;;;5073109;28;20127;-77
2024/03/15 03:37:37;;;;;;;2.30;1.77;;;17.20;99.90;;;;;;5071691;28;20035;-76
2024/03/15 03:40:09;;;;;;;2.63;1.73;;;17.20;99.90;;;;;;5071837;28;20035;-76
2024/03/15 03:42:36;;;;;;;2.92;1.52;;;17.20;99.90;;;;;;5071909;28;20035;-77
2024/03/15 03:45:15;;;;;;;3.72;2.10;;;17.20;99.90;;;;;;5072558;28;20024;-77
2024/03/15 03:47:50;;;;;;;4.32;1.77;;;17.20;99.90;;;;;;5073002;28;20024;-77
2024/03/15 03:50:18;;;;;;;3.78;2.00;;;17.20;99.90;;;;;;5071474;28;20484;-77
2024/03/15 03:52:45;;;;;;;2.97;1.40;;;17.20;99.90;;;;;;5073073;28;20020;-77
2024/03/15 03:55:11;;;;;;;2.80;1.58;;;17.20;99.90;;;;;;5065673;28;20377;-77
2024/03/15 03:57:37;;;;;;;2.23;1.73;;;17.20;99.90;;;;;;5072572;28;20021;-78
2024/03/15 04:00:05;;;;;;;4.55;1.80;;;17.20;99.90;;;;;;5073152;28;20043;-76
2024/03/15 04:02:31;;;;;;;3.42;2.17;;;17.20;99.90;;;;;;5071245;28;20376;-77
2024/03/15 04:04:57;;;;;;;3.40;2.03;;;17.20;99.90;;;;;;5072293;28;20048;-77
2024/03/15 04:07:30;;;;;;;2.67;1.70;;;17.20;99.90;;;;;;5070766;28;20377;-75
2024/03/15 04:09:56;;;;;;;3.13;2.05;;;17.10;99.90;;;;;;5072734;28;20020;-77
2024/03/15 04:12:22;;;;;;;2.78;1.88;;;17.10;99.90;;;;;;5073056;28;20029;-78
2024/03/15 04:14:49;;;;;;;3.37;1.80;;;17.10;99.90;;;;;;5072546;28;20036;-78
2024/03/15 04:17:16;;;;;;;2.22;1.80;;;17.10;99.90;;;;;;5071207;28;20049;-77
2024/03/15 04:19:43;;;;;;;2.13;1.85;;;17.10;99.90;;;;;;5071109;28;20382;-76
2024/03/15 04:22:10;;;;;;;;;;;17.10;99.90;;;;;;5072931;28;20045;-77
2024/03/15 04:24:36;;;;;;;2.53;1.70;;;17.10;99.90;;;;;;5070992;28;19994;-78
2024/03/15 04:27:03;;;;;;;2.80;1.88;;;17.10;99.90;;;;;;5070614;28;20072;-77
2024/03/15 04:29:30;;;;;;;2.55;1.90;;;17.10;99.90;;;;;;5070918;28;20028;-77
2024/03/15 04:31:57;;;;;;;;;;;17.10;99.90;;;;;;5072995;28;20095;-75
2024/03/15 04:34:24;;;;;;;2.35;1.70;;;17.10;99.90;;;;;;5070908;28;19907;-77
2024/03/15 04:36:51;;;;;;;2.85;1.90;;;17.10;99.90;;;;;;5070300;28;20158;-76
2024/03/15 04:39:17;;;;;;;2.42;1.95;;;17.10;99.90;;;;;;5070591;28;20318;-77
2024/03/15 04:41:43;;;;;;;2.53;1.92;;;17.10;99.90;;;;;;5072052;28;20027;-77
2024/03/15 04:44:09;;;;;;;2.30;1.87;;;17.10;99.90;;;;;;5070877;28;20032;-76
2024/03/15 04:46:34;;;;;;;2.27;2.00;;;17.10;99.90;;;;;;5070683;28;20025;-77
2024/03/15 04:49:00;;;;;;;3.27;1.67;;;17.10;99.90;;;;;;5070386;28;20060;-77
2024/03/15 04:51:26;;;;;;;4.43;1.67;;;17.10;99.90;;;;;;5070249;28;20025;-76
2024/03/15 04:53:51;;;;;;;3.53;2.37;;;17.00;99.90;;;;;;5072118;28;20039;-77
2024/03/15 04:56:18;;;;;;;4.17;1.50;;;17.00;99.90;;;;;;5070600;28;20493;-76
2024/03/15 04:58:45;;;;;;;2.08;1.73;;;17.00;99.90;;;;;;5070127;28;20030;-76
2024/03/15 05:01:11;;;;;;;2.47;1.60;;;17.00;99.90;;;;;;5070395;28;20024;-77
2024/03/15 05:03:38;;;;;;;3.17;2.00;;;17.00;99.90;;;;;;5071612;28;20028;-77
2024/03/15 05:06:04;;;;;;;3.63;1.92;;;17.00;99.90;;;;;;5070768;28;20162;-77
2024/03/15 05:08:31;;;;;;;4.00;2.10;;;17.00;99.90;;;;;;5071599;28;20024;-76
2024/03/15 05:10:57;;;;;;;2.45;1.63;;;17.00;99.90;;;;;;5070148;28;20034;-76
2024/03/15 05:13:22;;;;;;;2.50;1.90;;;17.00;99.90;;;;;;5071854;28;20091;-76
2024/03/15 05:15:49;;;;;;;2.80;1.83;;;17.00;99.90;;;;;;5069953;28;20025;-76
2024/03/15 05:18:15;;;;;;;1.92;1.60;;;17.00;99.90;;;;;;5070062;28;20616;-76
2024/03/15 05:20:41;;;;;;;3.15;2.10;;;17.00;99.90;;;;;;5071359;28;20032;-77
2024/03/15 05:23:07;;;;;;;3.30;2.13;;;17.00;99.90;;;;;;5070951;28;20055;-77
2024/03/15 05:25:34;;;;;;;2.15;1.73;;;17.00;99.90;;;;;;5071323;28;20047;-78
2024/03/15 05:28:00;;;;;;;2.65;1.67;;;17.00;99.90;;;;;;5070484;28;20020;-77
2024/03/15 05:30:27;;;;;;;2.67;1.73;;;16.90;99.90;;;;;;5071269;28;20020;-78
2024/03/15 05:32:53;;;;;;;4.63;1.98;;;17.00;99.90;;;;;;5065985;28;20020;-78
2024/03/15 05:35:20;;;;;;;2.57;1.70;;;16.90;99.90;;;;;;5069806;28;20496;-76
2024/03/15 05:37:46;;;;;;;5.47;1.60;;;16.90;99.90;;;;;;5069474;28;20074;-76
2024/03/15 05:40:12;;;;;;;4.05;2.13;;;16.90;99.90;;;;;;5069692;28;20136;-77
2024/03/15 05:42:38;;;;;;;2.88;1.80;;;16.90;99.90;;;;;;5069581;28;20460;-77
2024/03/15 05:45:05;;;;;;;2.00;1.70;;;16.90;99.90;;;;;;5069487;28;20040;-78
2024/03/15 05:47:30;;;;;;;3.13;2.10;;;16.90;99.90;;;;;;5070880;28;20058;-76
2024/03/15 05:49:56;;;;;;;1.90;1.70;;;16.90;99.90;;;;;;5086216;28;20480;-76
2024/03/15 05:52:22;;;;;;;5.67;1.83;;;16.90;99.90;;;;;;5069126;28;20381;-77
2024/03/15 05:54:48;;;;;;;2.27;1.87;;;16.90;99.90;;;;;;5069534;28;20058;-76
2024/03/15 05:57:13;;;;;;;2.50;1.90;;;16.90;99.90;;;;;;5070489;28;20457;-78
2024/03/15 05:59:39;;;;;;;2.97;1.80;;;16.90;99.90;;;;;;5070908;28;20453;-78
2024/03/15 06:02:05;;;;;;;2.63;1.83;;;16.90;99.90;;;;;;5069361;28;20034;-77
2024/03/15 06:04:33;;;;;;;2.50;1.80;;;16.90;99.90;;;;;;5068969;28;20461;-77
2024/03/15 06:07:00;;;;;;;3.15;1.42;;;16.90;99.90;;;;;;5069202;28;20028;-77
2024/03/15 06:09:26;;;;;;;4.47;2.20;;;16.90;99.90;;;;;;5068770;28;20051;-76
2024/03/15 06:11:54;;;;;;;;;;;16.90;99.90;;;;;;5071186;28;20028;-77
2024/03/15 06:14:20;;;;;;;2.85;1.88;;;16.90;99.90;;;;;;5069231;28;19901;-76
2024/03/15 06:16:46;;;;;;;2.17;1.40;;;16.90;99.90;;;;;;5068332;28;20671;-76
2024/03/15 06:19:12;;;;;;;4.43;1.93;;;16.80;99.90;;;;;;5068761;28;20044;-76
2024/03/15 06:21:38;;;;;;;5.90;2.17;;;16.80;99.90;;;;;;5070403;28;20009;-77
2024/03/15 06:24:06;;;;;;;2.78;2.15;;;16.80;99.90;;;;;;5070275;28;20048;-78
2024/03/15 06:26:32;;;;;;;2.28;1.65;;;16.80;99.90;;;;;;5069834;28;20047;-78
2024/03/15 06:28:59;;;;;;;1.90;1.50;;;16.80;99.90;;;;;;5070293;28;20035;-76
2024/03/15 06:31:25;;;;;;;3.72;2.08;;;16.80;99.90;;;;;;5069830;28;20252;-77
2024/03/15 06:33:53;;;;;;;4.63;1.90;;;16.80;99.90;;;;;;5070247;28;20028;-76
2024/03/15 06:36:19;;;;;;;2.40;1.60;;;16.80;99.90;;;;;;5068445;28;20056;-76
2024/03/15 06:43:58;;;;;;;1.80;1.55;;;16.80;99.90;;;;;;5070091;28;20033;-77
2024/03/15 06:46:29;;;;;;;3.95;2.15;;;16.80;99.90;;;;;;5065044;28;20028;-75
2024/03/15 06:48:57;;;;;;;3.15;1.92;;;16.80;99.90;;;;;;5070116;28;20024;-77
2024/03/15 06:54:08;;;;;;;2.17;1.77;;;16.80;99.90;;;;;;5069641;28;20383;-78
2024/03/15 06:56:36;;;;;;;2.17;1.80;;;16.80;99.90;;;;;;5068485;28;20029;-78
2024/03/15 06:59:02;;;;;;;3.83;1.75;;;16.80;99.90;;;;;;5066277;28;20039;-77
2024/03/15 07:01:28;;;;;;;2.63;1.63;;;16.80;99.90;;;;;;5069906;28;20134;-76
2024/03/15 07:04:00;;;;;;;1.97;1.70;;;16.80;99.90;;;;;;5068526;28;20033;-78
2024/03/15 07:06:27;;;;;;;3.65;2.10;;;16.80;99.90;;;;;;5052683;28;20024;-76
2024/03/15 07:08:54;;;;;;;2.97;1.80;;;16.80;99.90;;;;;;5069738;28;20051;-78
2024/03/15 07:11:21;;;;;;;2.15;1.80;;;16.80;99.90;;;;;;5083924;28;20102;-77
2024/03/15 07:13:47;;;;;;;2.33;1.58;;;16.80;99.90;;;;;;5069776;28;20031;-76
2024/03/15 07:16:12;;;;;;;2.93;1.97;;;16.80;99.90;;;;;;5068106;28;20123;-76
2024/03/15 07:18:39;;;;;;;2.13;1.53;;;16.80;99.90;;;;;;5068061;28;20033;-76
2024/03/15 07:21:09;;;;;;;;;;;16.90;99.90;;;;;;5070508;28;20098;-76
2024/03/15 07:23:35;;;;;;;3.58;1.60;;;16.90;99.90;;;;;;5069198;28;19920;-76
2024/03/15 07:26:02;;;;;;;5.60;2.40;;;17.00;99.90;;;;;;5070070;28;20032;-76
2024/03/15 07:28:28;;;;;;;3.00;1.88;;;17.10;99.90;;;;;;5068518;28;20048;-78
2024/03/15 07:30:55;;;;;;;2.43;2.10;;;17.10;99.90;;;;;;5070046;28;20048;-78
2024/03/15 07:33:23;;;;;;;3.15;1.88;;;17.20;99.90;;;;;;5068593;28;20446;-76
2024/03/15 07:35:49;;;;;;;2.90;1.73;;;17.20;99.90;;;;;;5069407;28;20021;-77
2024/03/15 07:38:15;;;;;;;4.10;1.63;;;17.20;99.90;;;;;;5068296;28;20059;-76
2024/03/15 07:40:41;;;;;;;3.10;1.85;;;17.20;99.90;;;;;;5070039;28;20025;-78
2024/03/15 07:43:08;;;;;;;6.37;2.23;;;17.30;99.90;;;;;;5068666;28;20119;-77
2024/03/15 07:45:35;;;;;;;4.15;1.98;;;17.50;99.90;;;;;;5073130;28;20055;-78
2024/03/15 07:48:01;;;;;;;3.05;1.80;;;17.60;99.90;;;;;;5071460;28;20029;-77
2024/03/15 07:50:27;;;;;;;3.08;2.20;;;17.70;99.90;;;;;;5071894;28;20035;-76
2024/03/15 07:52:53;;;;;;;3.27;1.90;;;17.60;99.90;;;;;;5073131;28;20365;-78
2024/03/15 07:55:20;;;;;;;3.10;1.92;;;17.90;99.90;;;;;;5072252;28;20427;-77
2024/03/15 07:57:47;;;;;;;3.00;1.88;;;18.40;99.90;;;;;;5071327;28;20036;-76
2024/03/15 08:00:14;;;;;;;2.22;1.63;;;18.30;99.90;;;;;;5070866;28;20028;-76
2024/03/15 08:02:40;;;;;;;3.55;2.03;;;18.50;99.90;;;;;;5072849;28;20016;-75
2024/03/15 08:05:06;;;;;;;;;;;18.90;99.90;;;;;;5073090;28;20040;-76
2024/03/15 08:07:32;;;;;;;3.40;1.48;;;19.10;99.90;;;;;;5072825;28;19908;-75
2024/03/15 08:09:58;;;;;;;5.82;2.10;;;19.10;99.90;;;;;;5073354;28;20024;-78
2024/03/15 08:12:24;;;;;;;4.03;1.63;;;19.10;99.90;;;;;;5071997;28;20036;-77
2024/03/15 08:14:50;;;;;;;11.30;1.90;;;19.80;99.90;;;;;;5071142;28;20085;-75
2024/03/15 08:17:16;;;;;;;3.53;1.58;;;20.10;99.90;;;;;;5071205;28;20032;-76
2024/03/15 08:19:42;;;;;;;10.27;1.50;;;20.60;99.90;;;;;;5070571;28;20461;-78
2024/03/15 08:22:09;;;;;;;24.13;2.40;;;20.20;99.90;;;;;;5070154;28;20056;-76
2024/03/15 08:24:36;;;;;;;10.05;1.88;;;20.20;99.90;;;;;;5072118;28;20031;-77
2024/03/15 08:27:02;;;;;;;5.60;1.95;;;20.40;99.90;;;;;;5071471;28;20032;-79
2024/03/15 08:29:28;;;;;;;5.30;1.50;;;20.60;99.90;;;;;;5072686;28;20415;-79
2024/03/15 08:31:53;;;;;;;6.50;1.83;;;20.10;99.90;;;;;;5071431;28;20024;-80
2024/03/15 08:34:21;;;;;;;6.53;1.60;;;19.70;99.90;;;;;;5072020;28;20031;-76
2024/03/15 08:36:47;;;;;;;4.78;1.60;;;19.50;99.90;;;;;;5071266;28;20056;-76
2024/03/15 08:39:15;;;;;;;3.97;1.70;;;19.20;99.90;;;;;;5071089;28;20475;-76
2024/03/15 08:41:42;;;;;;;7.10;2.10;;;18.80;99.90;;;;;;5069906;28;20074;-75
2024/03/15 08:44:08;;;;;;;6.53;2.20;;;18.60;99.90;;;;;;5070751;28;20032;-75
2024/03/15 08:46:36;;;;;;;8.40;1.63;;;18.40;99.90;;;;;;5071530;28;20114;-76
2024/03/15 08:49:02;;;;;;;4.25;1.73;;;18.40;99.90;;;;;;5070755;28;20351;-77
2024/03/15 08:51:28;;;;;;;7.43;2.33;;;19.30;99.90;;;;;;5072062;28;20086;-76
2024/03/15 08:53:53;;;;;;;5.77;1.50;;;20.30;99.90;;;;;;5069867;28;20378;-77
2024/03/15 08:56:19;;;;;;;4.40;1.47;;;20.80;99.90;;;;;;5069884;28;20389;-76
2024/03/15 08:58:45;;;;;;;3.47;1.30;;;20.40;99.90;;;;;;5071872;28;20028;-76
2024/03/15 09:01:11;;;;;;;6.65;1.63;;;20.10;99.90;;;;;;5070482;28;20033;-77
2024/03/15 09:03:37;;;;;;;7.17;1.70;;;19.60;99.90;;;;;;5070285;28;20042;-77
2024/03/15 09:06:09;;;;;;;2.33;1.40;;;19.20;99.90;;;;;;5069977;28;20059;-77
2024/03/15 09:08:35;;;;;;;4.38;1.80;;;19.00;99.90;;;;;;5071992;28;20100;-76
2024/03/15 09:11:01;;;;;;;3.43;1.63;;;18.80;99.90;;;;;;5071160;28;20104;-76
2024/03/15 09:13:27;;;;;;;2.80;1.35;;;18.60;99.90;;;;;;5070749;28;20028;-77
2024/03/15 09:15:56;;;;;;;14.93;1.95;;;18.60;99.90;;;;;;5070838;28;20041;-76
2024/03/15 09:18:23;;;;;;;2.83;1.40;;;18.70;99.90;;;;;;5070359;28;20033;-76
2024/03/15 09:20:51;;;;;;;12.40;1.77;;;18.70;99.90;;;;;;5070582;28;20055;-78
2024/03/15 09:23:19;;;;;;;7.20;1.98;;;18.50;99.90;;;;;;5072018;28;20095;-80
2024/03/15 09:25:45;;;;;;;4.07;1.20;;;18.50;99.90;;;;;;5070525;28;20119;-76
2024/03/15 09:28:12;;;;;;;3.83;1.77;;;18.80;99.90;;;;;;5071486;28;20467;-83
2024/03/15 09:30:49;;;;;;;4.32;1.35;;;18.70;99.90;;;;;;5070346;28;20035;-76
2024/03/15 09:33:16;;;;;;;7.03;1.63;;;18.70;99.90;;;;;;5070472;28;20111;-81
2024/03/15 09:35:46;;;;;;;5.05;1.55;;;19.00;99.90;;;;;;5071776;28;20024;-77
2024/03/15 09:38:15;;;;;;;5.53;1.35;;;19.20;99.90;;;;;;5066930;28;20086;-75
2024/03/15 09:40:42;;;;;;;8.50;1.60;;;19.10;99.90;;;;;;5069453;28;20020;-77
2024/03/15 09:43:13;;;;;;;3.97;1.55;;;19.00;99.90;;;;;;5067512;28;20028;-79
2024/03/15 09:45:39;;;;;;;2.83;1.40;;;19.10;99.90;;;;;;5057616;28;20492;-75
2024/03/15 09:48:10;;;;;;;4.07;1.80;;;19.10;99.90;;;;;;5070429;28;20082;-76
2024/03/15 09:50:38;;;;;;;7.28;1.55;;;19.10;99.90;;;;;;5070713;28;20021;-76
2024/03/15 09:53:04;;;;;;;3.90;1.13;;;19.10;99.90;;;;;;5070291;28;20460;-78
2024/03/15 09:55:30;;;;;;;3.40;1.47;;;19.10;99.90;;;;;;5070051;28;20120;-80
2024/03/15 09:57:58;;;;;;;2.13;1.37;;;19.00;99.90;;;;;;5071000;28;20021;-76
2024/03/15 10:00:24;;;;;;;3.00;1.20;;;18.80;99.90;;;;;;5069250;28;20410;-79
2024/03/15 10:02:54;;;;;;;4.03;1.50;;;18.70;99.90;;;;;;5069876;28;20105;-75
2024/03/15 10:05:21;;;;;;;3.78;1.27;;;18.60;99.90;;;;;;5071209;28;20025;-76
2024/03/15 10:07:47;;;;;;;4.40;1.52;;;18.60;99.90;;;;;;5068611;28;20032;-76
2024/03/15 10:10:14;;;;;;;4.25;1.45;;;18.50;99.90;;;;;;5066034;28;20446;-80
2024/03/15 10:12:47;;;;;;;3.47;1.40;;;18.50;99.90;;;;;;5068112;28;20024;-75
2024/03/15 10:15:19;;;;;;;3.30;1.48;;;18.50;99.90;;;;;;5066822;28;20478;-77
2024/03/15 10:17:46;;;;;;;6.05;1.45;;;18.50;99.90;;;;;;5081239;28;20075;-75
2024/03/15 10:20:18;;;;;;;4.38;1.20;;;18.50;99.90;;;;;;5068781;28;20116;-79
2024/03/15 10:22:45;;;;;;;4.05;1.27;;;18.50;99.90;;;;;;5069132;28;20053;-77
2024/03/15 10:25:15;;;;;;;6.70;1.45;;;18.40;99.90;;;;;;5068915;28;20048;-75
2024/03/15 10:27:43;;;;;;;7.07;1.60;;;18.40;99.90;;;;;;5069782;28;20469;-76
2024/03/15 10:30:22;;;;;;;9.38;2.00;;;18.30;99.90;;;;;;5069226;28;20020;-73
2024/03/15 10:32:49;;;;;;;5.50;1.52;;;18.30;99.90;;;;;;5070190;28;20388;-74
2024/03/15 10:35:16;;;;;;;4.07;1.42;;;18.30;99.90;;;;;;5059009;28;20025;-76
2024/03/15 10:37:44;;;;;;;5.15;2.08;;;18.30;99.90;;;;;;5065872;28;20056;-76
2024/03/15 10:40:23;;;;;;;7.43;1.80;;;18.40;99.90;;;;;;5070168;28;20047;-78
2024/03/15 10:42:53;;;;;;;3.38;1.15;;;18.40;99.90;;;;;;5070576;28;20048;-77
2024/03/15 10:45:21;;;;;;;7.43;1.77;;;18.60;99.90;;;;;;5068825;28;20385;-75
2024/03/15 10:47:47;;;;;;;8.20;1.67;;;18.60;99.90;;;;;;5069082;28;20025;-76
2024/03/15 10:50:18;;;;;;;5.90;1.67;;;18.50;99.90;;;;;;5070708;28;20024;-75
2024/03/15 10:52:45;;;;;;;5.45;1.80;;;18.40;99.90;;;;;;5068837;28;20059;-75
2024/03/15 10:55:22;;;;;;;11.15;1.92;;;18.30;99.90;;;;;;5069354;28;20028;-75
2024/03/15 10:57:50;;;;;;;7.93;2.05;;;18.30;99.90;;;;;;5070939;28;20021;-79
2024/03/15 11:00:26;;;;;;;5.10;1.52;;;18.20;99.90;;;;;;5067675;28;20077;-75
2024/03/15 11:02:55;;;;;;;;;;;18.20;99.90;;;;;;5064270;28;20029;-75
2024/03/15 11:05:24;;;;;;;8.48;1.50;;;18.30;99.90;;;;;;5055721;28;19919;-75
2024/03/15 11:08:02;;;;;;;4.40;1.48;;;18.30;99.90;;;;;;5066338;28;20628;-75
2024/03/15 11:10:28;;;;;;;4.07;1.88;;;18.20;99.90;;;;;;5066952;28;20027;-76
2024/03/15 11:12:57;;;;;;;7.25;1.63;;;18.10;99.90;;;;;;5067721;28;20060;-76
2024/03/15 11:15:23;;;;;;;7.65;1.70;;;18.10;99.90;;;;;;5066923;28;20041;-77
2024/03/15 11:18:18;;;;;;;9.15;1.80;;;18.10;99.90;;;;;;5068159;28;20466;-76
2024/03/15 11:20:54;;;;;;;6.37;1.37;;;18.10;99.90;;;;;;5016460;28;20037;-78
2024/03/15 11:23:22;;;;;;;6.90;1.70;;;18.00;99.90;;;;;;5025888;28;20783;-77
2024/03/15 11:25:59;;;;;;;6.15;1.67;;;18.00;99.90;;;;;;5027988;28;20037;-74
2024/03/15 11:28:33;;;;;;;4.45;1.60;;;18.00;99.90;;;;;;5028840;28;20025;-76
2024/03/15 11:30:59;;;;;;;4.18;1.58;;;18.00;99.90;;;;;;5030935;28;20045;-76
2024/03/15 11:33:26;;;;;;;7.68;1.90;;;18.00;99.90;;;;;;5029247;28;20030;-76
2024/03/15 11:35:52;;;;;;;7.43;1.77;;;18.00;99.90;;;;;;5031151;28;20029;-78
2024/03/15 11:38:19;;;;;;;3.42;1.40;;;18.10;99.90;;;;;;5030307;28;20514;-74
2024/03/15 11:40:45;;;;;;;;;;;18.10;99.90;;;;;;5030851;28;20047;-77
2024/03/15 11:43:12;;;;;;;6.95;1.58;;;18.10;99.90;;;;;;5030970;28;19909;-74
2024/03/15 11:45:38;;;;;;;;;;;18.00;99.90;;;;;;5012939;28;20029;-74
2024/03/15 11:48:19;;;;;;;16.85;6.93;;;18.00;99.90;;;;;;5014915;28;20239;-74
2024/03/15 11:50:47;;;;;;;73.13;34.58;;;18.20;99.90;;;;;;5010367;28;20030;-73
2024/03/15 11:53:13;;;;;;;20.13;8.15;;;18.40;99.90;;;;;;5025785;28;20056;-74
2024/03/15 11:55:42;;;;;;;33.50;14.45;;;18.50;99.90;;;;;;5029662;28;20120;-76
2024/03/15 11:58:15;;;;;;;33.17;17.13;;;18.50;99.90;;;;;;5064303;28;20032;-75
2024/03/15 12:00:41;;;;;;;25.38;9.77;;;18.60;99.90;;;;;;5073490;28;20047;-76
2024/03/15 12:03:14;;;;;;;20.70;11.10;;;18.60;99.90;;;;;;5072589;28;20028;-76
2024/03/15 12:05:42;;;;;;;17.38;9.55;;;18.50;99.90;;;;;;5071910;28;20063;-78
2024/03/15 12:08:23;;;;;;;20.80;9.57;;;18.40;99.90;;;;;;5073379;28;20074;-76
2024/03/15 12:10:51;;;;;;;15.13;7.75;;;18.40;99.90;;;;;;5073297;28;20021;-75
2024/03/15 12:13:28;;;;;;;15.05;8.05;;;18.40;99.90;;;;;;5072607;28;20093;-75
2024/03/15 12:15:55;;;;;;;15.20;7.18;;;18.40;99.90;;;;;;5072759;28;20059;-75
2024/03/15 12:18:21;;;;;;;16.33;7.07;;;18.50;99.90;;;;;;5071467;28;20032;-75
2024/03/15 12:20:50;;;;;;;15.02;7.53;;;18.70;99.90;;;;;;5071633;28;20028;-76
2024/03/15 12:23:17;;;;;;;14.00;6.63;;;18.90;99.90;;;;;;5072533;28;20612;-76
2024/03/15 12:25:45;;;;;;;14.35;6.68;;;19.00;99.90;;;;;;5071783;28;20527;-77
2024/03/15 12:28:12;;;;;;;12.23;6.20;;;19.10;99.90;;;;;;5072344;28;20049;-77
2024/03/15 12:30:42;;;;;;;15.98;6.35;;;19.10;99.90;;;;;;5071950;28;20069;-77
2024/03/15 12:33:12;;;;;;;12.45;5.70;;;19.20;99.90;;;;;;5071330;28;20033;-75
2024/03/15 12:35:39;;;;;;;10.88;5.38;;;19.20;99.90;;;;;;5072449;28;20476;-77
2024/03/15 12:38:06;;;;;;;13.02;5.57;;;19.10;99.90;;;;;;5070717;28;20039;-75
2024/03/15 12:40:33;;;;;;;14.25;5.43;;;18.90;99.90;;;;;;5070387;28;20027;-78
2024/03/15 12:42:59;;;;;;;;;;;18.90;99.90;;;;;;5071295;28;20170;-75
2024/03/15 12:45:24;;;;;;;9.03;5.17;;;18.90;99.90;;;;;;5071338;28;19968;-76
2024/03/15 12:47:50;;;;;;;11.60;4.80;;;18.90;99.90;;;;;;5072192;28;20260;-77
2024/03/15 12:50:19;;;;;;;9.37;4.87;;;18.90;99.90;;;;;;5070630;28;20032;-75
2024/03/15 12:52:48;;;;;;;9.40;4.53;;;19.00;99.90;;;;;;5070731;28;20029;-76
2024/03/15 12:55:16;;;;;;;11.57;4.50;;;19.00;99.90;;;;;;5072334;28;20040;-77
2024/03/15 12:57:42;;;;;;;7.47;3.85;;;19.10;99.90;;;;;;5070521;28;20021;-76